createdAt,value
2019-05-23T00:01:05.468Z,97513.23
2019-05-23T00:04:36.843Z,97512.01
2019-05-23T00:08:03.352Z,97516.35
2019-05-23T00:11:39.897Z,97515.89
2019-05-23T00:14:55.742Z,97516.04
2019-05-23T00:18:04.921Z,97522.51
2019-05-23T00:21:14.055Z,97521.36
2019-05-23T00:24:20.771Z,97521.95
2019-05-23T00:27:27.482Z,97524.95
2019-05-23T00:30:50.310Z,97525.42
2019-05-23T00:34:00.383Z,97523.23
2019-05-23T00:37:09.250Z,97522.98
2019-05-23T00:40:18.516Z,97521.22
2019-05-23T00:43:27.789Z,97517.41
2019-05-23T00:46:34.366Z,97514.08
2019-05-23T00:49:41.702Z,97513.33
2019-05-23T00:52:49.719Z,97512.68
2019-05-23T00:55:56.488Z,97512.84
2019-05-23T00:59:03.919Z,97518.30
2019-05-23T01:02:11.153Z,97515.95
2019-05-23T01:05:19.637Z,97516.13
2019-05-23T01:08:26.951Z,97522.72
2019-05-23T01:11:33.450Z,97522.60
2019-05-23T01:14:40.642Z,97516.36
2019-05-23T01:17:48.019Z,97518.80
2019-05-23T01:21:26.122Z,97520.39
2019-05-23T01:24:40.816Z,97524.06
2019-05-23T01:27:47.338Z,97519.16
2019-05-23T01:30:58.398Z,97523.26
2019-05-23T01:34:05.567Z,97518.77
2019-05-23T01:37:14.076Z,97526.52
2019-05-23T01:40:22.465Z,97524.91
2019-05-23T01:43:30.805Z,97529.22
2019-05-23T01:46:37.766Z,97533.78
2019-05-23T01:49:44.917Z,97531.50
2019-05-23T01:52:52.922Z,97531.00
2019-05-23T01:55:59.928Z,97532.16
2019-05-23T01:59:07.328Z,97535.88
2019-05-23T02:02:16.364Z,97525.11
2019-05-23T02:05:23.789Z,97529.30
2019-05-23T02:08:30.562Z,97525.46
2019-05-23T02:11:37.526Z,97522.88
2019-05-23T02:14:45.941Z,97523.00
2019-05-23T02:17:53.804Z,97530.27
2019-05-23T02:21:02.713Z,97526.41
2019-05-23T02:24:09.449Z,97531.73
2019-05-23T02:27:16.338Z,97525.77
2019-05-23T02:30:34.611Z,97533.28
2019-05-23T02:33:33.706Z,97520.71
2019-05-23T02:36:42.315Z,97521.67
2019-05-23T02:39:57.816Z,97527.09
2019-05-23T02:43:05.723Z,97531.07
2019-05-23T02:46:24.090Z,97524.93
2019-05-23T02:49:33.884Z,97523.59
2019-05-23T02:52:54.351Z,97523.11
2019-05-23T02:56:06.105Z,97516.06
2019-05-23T02:59:40.879Z,97515.58
2019-05-23T03:02:55.031Z,97513.41
2019-05-23T03:06:02.981Z,97517.60
2019-05-23T03:09:12.180Z,97512.27
2019-05-23T03:12:25.245Z,97507.84
2019-05-23T03:15:34.052Z,97508.70
2019-05-23T03:18:44.898Z,97508.73
2019-05-23T03:21:55.213Z,97506.66
2019-05-23T03:25:08.252Z,97495.89
2019-05-23T03:28:18.720Z,97496.39
2019-05-23T03:31:36.059Z,97498.02
2019-05-23T03:34:45.635Z,97495.46
2019-05-23T03:37:55.347Z,97496.19
2019-05-23T03:41:02.307Z,97495.56
2019-05-23T03:44:11.570Z,97499.32
2019-05-23T03:47:20.395Z,97499.84
2019-05-23T03:50:28.772Z,97512.16
2019-05-23T03:53:37.105Z,97514.83
2019-05-23T03:56:44.611Z,97508.45
2019-05-23T03:59:51.852Z,97507.21
2019-05-23T04:03:03.055Z,97508.25
2019-05-23T04:06:10.102Z,97506.85
2019-05-23T04:09:17.440Z,97503.61
2019-05-23T04:12:24.184Z,97500.09
2019-05-23T04:15:30.815Z,97499.52
2019-05-23T04:18:42.352Z,97500.00
2019-05-23T04:21:49.045Z,97497.20
2019-05-23T04:24:55.972Z,97500.41
2019-05-23T04:28:02.867Z,97498.11
2019-05-23T04:31:12.997Z,97498.11
2019-05-23T04:34:19.471Z,97500.27
2019-05-23T04:37:25.928Z,97497.78
2019-05-23T04:40:34.465Z,97494.11
2019-05-23T04:43:41.294Z,97498.11
2019-05-23T04:46:50.285Z,97493.15
2019-05-23T04:49:56.739Z,97493.67
2019-05-23T04:53:04.491Z,97494.23
2019-05-23T04:56:11.587Z,97487.18
2019-05-23T04:59:18.005Z,97495.80
2019-05-23T05:02:28.412Z,97502.66
2019-05-23T05:05:35.401Z,97507.93
2019-05-23T05:08:44.667Z,97511.88
2019-05-23T05:11:51.173Z,97516.75
2019-05-23T05:14:57.721Z,97515.83
2019-05-23T05:18:04.435Z,97519.30
2019-05-23T05:21:11.230Z,97521.30
2019-05-23T05:24:19.390Z,97523.39
2019-05-23T05:27:26.673Z,97532.18
2019-05-23T05:30:33.676Z,97530.45
2019-05-23T05:33:40.545Z,97539.78
2019-05-23T05:36:47.064Z,97544.69
2019-05-23T05:39:55.185Z,97536.80
2019-05-23T05:43:04.000Z,97548.34
2019-05-23T05:46:12.843Z,97553.77
2019-05-23T05:49:21.368Z,97547.88
2019-05-23T05:52:30.768Z,97547.97
2019-05-23T05:55:37.375Z,97551.88
2019-05-23T05:58:44.446Z,97557.38
2019-05-23T06:01:51.095Z,97554.79
2019-05-23T06:04:58.445Z,97558.29
2019-05-23T06:08:07.134Z,97564.76
2019-05-23T06:11:14.226Z,97563.39
2019-05-23T06:14:21.023Z,97564.19
2019-05-23T06:17:28.388Z,97564.72
2019-05-23T06:20:40.500Z,97569.45
2019-05-23T06:23:46.865Z,97562.33
2019-05-23T06:26:53.789Z,97565.80
2019-05-23T06:30:00.494Z,97568.09
2019-05-23T06:33:22.756Z,97565.58
2019-05-23T06:36:17.584Z,97566.81
2019-05-23T06:39:24.348Z,97559.32
2019-05-23T06:42:31.056Z,97570.20
2019-05-23T06:45:42.022Z,97563.75
2019-05-23T06:48:48.617Z,97566.31
2019-05-23T06:51:55.155Z,97569.80
2019-05-23T06:55:01.715Z,97568.91
2019-05-23T06:58:08.506Z,97558.61
2019-05-23T07:01:15.187Z,97567.95
2019-05-23T07:04:22.614Z,97566.56
2019-05-23T07:07:31.217Z,97570.86
2019-05-23T07:10:39.545Z,97567.95
2019-05-23T07:13:46.209Z,97573.34
2019-05-23T07:16:52.633Z,97578.72
2019-05-23T07:19:59.388Z,97578.66
2019-05-23T07:23:09.307Z,97576.59
2019-05-23T07:26:15.968Z,97574.20
2019-05-23T07:29:22.553Z,97575.19
2019-05-23T07:32:29.965Z,97576.85
2019-05-23T07:35:38.457Z,97575.62
2019-05-23T07:38:46.710Z,97575.45
2019-05-23T07:41:54.466Z,97580.55
2019-05-23T07:45:01.867Z,97581.16
2019-05-23T07:48:08.921Z,97578.92
2019-05-23T07:51:15.586Z,97581.25
2019-05-23T07:54:30.879Z,97579.42
2019-05-23T07:57:37.605Z,97576.75
2019-05-23T08:00:50.590Z,97577.57
2019-05-23T08:03:57.581Z,97573.91
2019-05-23T08:07:05.064Z,97576.86
2019-05-23T08:10:13.655Z,97579.40
2019-05-23T08:13:20.099Z,97576.98
2019-05-23T08:16:27.542Z,97572.92
2019-05-23T08:19:48.609Z,97577.02
2019-05-23T08:22:44.833Z,97576.77
2019-05-23T08:25:54.863Z,97575.80
2019-05-23T08:29:24.725Z,97572.48
2019-05-23T08:32:11.543Z,97570.44
2019-05-23T08:35:18.320Z,97562.83
2019-05-23T08:38:26.418Z,97571.42
2019-05-23T08:41:33.627Z,97567.61
2019-05-23T08:44:41.907Z,97569.31
2019-05-23T08:47:48.726Z,97571.55
2019-05-23T08:50:56.183Z,97575.59
2019-05-23T08:54:02.699Z,97573.47
2019-05-23T08:57:09.351Z,97582.04
2019-05-23T09:00:17.239Z,97582.52
2019-05-23T09:03:23.844Z,97574.00
2019-05-23T09:06:30.845Z,97572.78
2019-05-23T09:09:38.006Z,97564.36
2019-05-23T09:12:47.866Z,97573.09
2019-05-23T09:15:54.900Z,97574.23
2019-05-23T09:19:01.431Z,97579.38
2019-05-23T09:22:07.943Z,97572.39
2019-05-23T09:25:15.614Z,97577.41
2019-05-23T09:28:22.399Z,97581.17
2019-05-23T09:31:30.672Z,97580.03
2019-05-23T09:34:37.247Z,97575.77
2019-05-23T09:37:44.411Z,97571.59
2019-05-23T09:40:50.921Z,97569.59
2019-05-23T09:43:57.320Z,97571.33
2019-05-23T09:47:04.228Z,97573.25
2019-05-23T09:50:13.926Z,97580.13
2019-05-23T09:53:20.696Z,97572.18
2019-05-23T09:56:27.316Z,97578.50
2019-05-23T09:59:34.001Z,97571.97
2019-05-23T10:02:41.997Z,97568.56
2019-05-23T10:05:48.597Z,97571.92
2019-05-23T10:08:55.030Z,97567.94
2019-05-23T10:12:01.941Z,97571.36
2019-05-23T10:15:11.537Z,97572.49
2019-05-23T10:18:20.047Z,97571.95
2019-05-23T10:21:27.772Z,97562.95
2019-05-23T10:24:34.336Z,97564.75
2019-05-23T10:27:41.600Z,97562.87
2019-05-23T10:30:48.011Z,97565.48
2019-05-23T10:33:54.542Z,97559.70
2019-05-23T10:37:01.366Z,97549.66
2019-05-23T10:40:08.792Z,97555.80
2019-05-23T10:43:15.416Z,97551.77
2019-05-23T10:46:22.557Z,97543.83
2019-05-23T10:49:31.332Z,97542.09
2019-05-23T10:52:38.211Z,97529.70
2019-05-23T10:55:46.465Z,97531.41
2019-05-23T10:58:52.933Z,97532.66
2019-05-23T11:01:59.517Z,97528.36
2019-05-23T11:05:13.078Z,97527.33
2019-05-23T11:08:15.858Z,97524.75
2019-05-23T11:11:23.206Z,97524.84
2019-05-23T11:14:48.139Z,97523.41
2019-05-23T11:17:55.622Z,97529.02
2019-05-23T11:21:02.262Z,97531.84
2019-05-23T11:24:12.595Z,97526.95
2019-05-23T11:27:20.806Z,97517.15
2019-05-23T11:30:38.073Z,97506.14
2019-05-23T11:33:46.221Z,97511.95
2019-05-23T11:36:52.667Z,97516.56
2019-05-23T11:39:59.192Z,97514.30
2019-05-23T11:43:06.742Z,97520.03
2019-05-23T11:46:20.943Z,97514.37
2019-05-23T11:49:27.646Z,97514.34
2019-05-23T11:52:35.545Z,97512.76
2019-05-23T11:55:43.647Z,97512.66
2019-05-23T11:58:51.730Z,97505.27
2019-05-23T12:02:06.807Z,97502.95
2019-05-23T12:05:24.551Z,97504.78
2019-05-23T12:08:32.519Z,97506.23
2019-05-23T12:11:42.658Z,97497.79
2019-05-23T12:14:47.340Z,97496.50
2019-05-23T12:17:54.270Z,97487.80
2019-05-23T12:21:00.840Z,97495.22
2019-05-23T12:24:07.504Z,97490.62
2019-05-23T12:27:14.608Z,97492.31
2019-05-23T12:30:22.541Z,97487.53
2019-05-23T12:33:29.270Z,97484.05
2019-05-23T12:36:36.515Z,97483.86
2019-05-23T12:39:45.840Z,97485.14
2019-05-23T12:42:52.342Z,97489.80
2019-05-23T12:45:58.846Z,97478.45
2019-05-23T12:49:24.431Z,97481.52
2019-05-23T12:52:32.618Z,97483.08
2019-05-23T12:55:40.897Z,97476.70
2019-05-23T12:58:47.404Z,97473.08
2019-05-23T13:01:55.653Z,97474.24
2019-05-23T13:06:20.351Z,97473.56
2019-05-23T13:09:29.058Z,97470.45
2019-05-23T13:12:35.916Z,97472.32
2019-05-23T13:15:43.638Z,97466.53
2019-05-23T13:18:50.420Z,97461.34
2019-05-23T13:21:56.944Z,97468.31
2019-05-23T13:25:03.606Z,97465.31
2019-05-23T13:28:10.075Z,97464.58
2019-05-23T13:31:16.772Z,97462.27
2019-05-23T13:34:23.401Z,97463.31
2019-05-23T13:37:30.215Z,97459.95
2019-05-23T13:40:36.727Z,97462.02
2019-05-23T13:43:46.585Z,97455.78
2019-05-23T13:46:53.378Z,97460.42
2019-05-23T13:50:01.482Z,97467.05
2019-05-23T13:53:09.493Z,97463.19
2019-05-23T13:56:16.785Z,97467.53
2019-05-23T13:59:23.531Z,97458.68
2019-05-23T14:02:30.334Z,97455.22
2019-05-23T14:05:37.009Z,97456.47
2019-05-23T14:08:46.786Z,97451.05
2019-05-23T14:12:19.487Z,97444.39
2019-05-23T14:15:02.203Z,97444.92
2019-05-23T14:18:15.129Z,97435.05
2019-05-23T14:21:24.911Z,97445.14
2019-05-23T14:24:31.541Z,97441.63
2019-05-23T14:27:43.697Z,97435.02
2019-05-23T14:31:16.019Z,97437.58
2019-05-23T14:34:23.083Z,97438.08
2019-05-23T14:37:35.100Z,97433.83
2019-05-23T14:40:46.585Z,97430.22
2019-05-23T14:43:54.206Z,97430.06
2019-05-23T14:47:37.962Z,97427.47
2019-05-23T14:50:58.301Z,97431.25
2019-05-23T14:54:08.572Z,97435.95
2019-05-23T14:57:15.243Z,97424.84
2019-05-23T15:00:22.912Z,97421.95
2019-05-23T15:03:29.554Z,97423.73
2019-05-23T15:06:36.364Z,97421.23
2019-05-23T15:09:44.959Z,97419.22
2019-05-23T15:12:51.555Z,97424.53
2019-05-23T15:15:58.195Z,97421.88
2019-05-23T15:19:05.320Z,97418.13
2019-05-23T15:22:13.016Z,97421.44
2019-05-23T15:25:22.788Z,97417.66
2019-05-23T15:28:29.421Z,97414.42
2019-05-23T15:31:36.986Z,97413.09
2019-05-23T15:34:44.395Z,97414.11
2019-05-23T15:37:51.027Z,97411.81
2019-05-23T15:40:57.592Z,97413.14
2019-05-23T15:44:22.813Z,97414.08
2019-05-23T15:47:15.413Z,97412.92
2019-05-23T15:50:25.265Z,97408.53
2019-05-23T15:53:49.692Z,97403.19
2019-05-23T15:57:21.971Z,97399.91
2019-05-23T16:00:46.592Z,97402.56
2019-05-23T16:03:57.128Z,97392.20
2019-05-23T16:07:03.963Z,97394.91
2019-05-23T16:10:13.960Z,97391.97
2019-05-23T16:13:23.453Z,97385.36
2019-05-23T16:16:31.128Z,97391.41
2019-05-23T16:19:44.284Z,97385.16
2019-05-23T16:22:53.237Z,97392.78
2019-05-23T16:26:01.466Z,97388.03
2019-05-23T16:29:09.754Z,97384.63
2019-05-23T16:32:18.595Z,97385.65
2019-05-23T16:35:25.744Z,97377.06
2019-05-23T16:38:37.532Z,97376.33
2019-05-23T16:41:44.093Z,97375.87
2019-05-23T16:44:51.028Z,97377.52
2019-05-23T16:47:57.526Z,97382.59
2019-05-23T16:51:04.571Z,97385.16
2019-05-23T16:54:11.639Z,97383.73
2019-05-23T16:57:30.284Z,97383.72
2019-05-23T17:01:02.139Z,97386.05
2019-05-23T17:04:20.344Z,97379.02
2019-05-23T17:07:45.124Z,97379.28
2019-05-23T17:10:56.936Z,97377.31
2019-05-23T17:14:12.191Z,97383.47
2019-05-23T17:17:49.020Z,97375.33
2019-05-23T17:20:48.545Z,97376.88
2019-05-23T17:24:03.426Z,97369.08
2019-05-23T17:27:35.462Z,97364.59
2019-05-23T17:30:46.526Z,97368.44
2019-05-23T17:33:53.199Z,97374.16
2019-05-23T17:36:59.922Z,97370.37
2019-05-23T17:40:23.241Z,97360.80
2019-05-23T17:43:16.545Z,97366.03
2019-05-23T17:46:23.202Z,97366.06
2019-05-23T17:49:32.316Z,97359.98
2019-05-23T17:52:40.659Z,97356.10
2019-05-23T17:55:48.586Z,97349.17
2019-05-23T17:58:55.146Z,97348.70
2019-05-23T18:02:01.682Z,97346.23
2019-05-23T18:05:09.793Z,97348.62
2019-05-23T18:08:19.023Z,97345.61
2019-05-23T18:11:28.535Z,97356.48
2019-05-23T18:14:36.293Z,97344.71
2019-05-23T18:17:42.831Z,97355.73
2019-05-23T18:20:49.318Z,97359.20
2019-05-23T18:23:56.142Z,97355.04
2019-05-23T18:27:02.841Z,97350.91
2019-05-23T18:30:15.486Z,97349.00
2019-05-23T18:33:24.102Z,97343.40
2019-05-23T18:36:32.280Z,97351.19
2019-05-23T18:39:41.205Z,97355.03
2019-05-23T18:42:48.160Z,97362.53
2019-05-23T18:45:57.794Z,97361.05
2019-05-23T18:49:05.921Z,97358.48
2019-05-23T18:52:12.452Z,97363.09
2019-05-23T18:55:19.106Z,97364.70
2019-05-23T18:58:26.047Z,97369.87
2019-05-23T19:01:32.805Z,97377.82
2019-05-23T19:04:39.494Z,97373.64
2019-05-23T19:07:46.781Z,97382.45
2019-05-23T19:10:53.666Z,97385.59
2019-05-23T19:14:00.278Z,97377.44
2019-05-23T19:17:07.708Z,97380.88
2019-05-23T19:20:14.386Z,97385.46
2019-05-23T19:23:21.320Z,97383.95
2019-05-23T19:26:28.179Z,97386.99
2019-05-23T19:29:38.951Z,97387.63
2019-05-23T19:32:47.995Z,97384.98
2019-05-23T19:35:55.137Z,97383.60
2019-05-23T19:39:01.692Z,97384.11
2019-05-23T19:42:09.864Z,97384.95
2019-05-23T19:45:16.645Z,97381.66
2019-05-23T19:48:23.356Z,97380.18
2019-05-23T19:51:30.424Z,97374.90
2019-05-23T19:54:37.203Z,97383.48
2019-05-23T19:57:44.039Z,97378.05
2019-05-23T20:00:50.997Z,97377.66
2019-05-23T20:03:57.706Z,97377.66
2019-05-23T20:07:06.833Z,97373.16
2019-05-23T20:10:14.325Z,97372.84
2019-05-23T20:13:20.966Z,97368.10
2019-05-23T20:16:27.506Z,97375.91
2019-05-23T20:19:34.727Z,97373.72
2019-05-23T20:22:41.494Z,97371.03
2019-05-23T20:25:48.172Z,97376.58
2019-05-23T20:28:58.051Z,97367.91
2019-05-23T20:32:05.601Z,97375.06
2019-05-23T20:35:12.258Z,97377.61
2019-05-23T20:38:19.309Z,97368.02
2019-05-23T20:41:26.155Z,97374.77
2019-05-23T20:44:32.872Z,97368.62
2019-05-23T20:47:41.271Z,97368.77
2019-05-23T20:50:48.092Z,97368.31
2019-05-23T20:53:54.848Z,97368.95
2019-05-23T20:57:01.412Z,97368.19
2019-05-23T21:00:10.387Z,97370.41
2019-05-23T21:03:17.006Z,97370.41
2019-05-23T21:06:26.121Z,97372.33
2019-05-23T21:09:35.571Z,97379.05
2019-05-23T21:12:42.185Z,97370.11
2019-05-23T21:15:48.984Z,97366.15
2019-05-23T21:18:55.427Z,97372.06
2019-05-23T21:22:02.225Z,97366.20
2019-05-23T21:25:08.940Z,97367.74
2019-05-23T21:28:15.505Z,97370.05
2019-05-23T21:31:23.350Z,97364.16
2019-05-23T21:34:30.135Z,97368.50
2019-05-23T21:37:37.090Z,97367.08
2019-05-23T21:40:47.753Z,97371.25
2019-05-23T21:43:55.496Z,97368.36
2019-05-23T21:47:01.964Z,97366.90
2019-05-23T21:50:08.611Z,97360.66
2019-05-23T21:53:15.325Z,97365.91
2019-05-23T21:56:21.840Z,97368.48
2019-05-23T21:59:28.266Z,97362.45
2019-05-23T22:02:37.084Z,97364.00
2019-05-23T22:05:43.514Z,97358.78
2019-05-23T22:08:50.480Z,97357.84
2019-05-23T22:11:56.926Z,97354.66
2019-05-23T22:15:04.407Z,97361.23
2019-05-23T22:18:11.071Z,97354.81
2019-05-23T22:21:17.648Z,97355.99
2019-05-23T22:24:24.193Z,97349.59
2019-05-23T22:27:31.897Z,97354.32
2019-05-23T22:30:38.428Z,97357.31
2019-05-23T22:33:48.858Z,97355.26
2019-05-23T22:36:55.943Z,97352.72
2019-05-23T22:40:06.451Z,97352.47
2019-05-23T22:43:21.133Z,97348.19
2019-05-23T22:46:23.534Z,97354.70
2019-05-23T22:49:30.128Z,97348.09
2019-05-23T22:52:38.360Z,97352.42
2019-05-23T22:55:44.849Z,97346.40
2019-05-23T22:58:51.414Z,97349.59
2019-05-23T23:01:58.024Z,97346.08
2019-05-23T23:05:04.886Z,97344.11
2019-05-23T23:08:12.572Z,97348.36
2019-05-23T23:11:19.312Z,97346.98
2019-05-23T23:14:25.854Z,97345.48
2019-05-23T23:17:32.786Z,97341.95
2019-05-23T23:20:41.356Z,97343.27
2019-05-23T23:23:48.087Z,97344.95
2019-05-23T23:26:54.931Z,97343.73
2019-05-23T23:30:03.240Z,97341.00
2019-05-23T23:33:09.731Z,97336.97
2019-05-23T23:36:16.196Z,97337.70
2019-05-23T23:39:26.028Z,97336.67
2019-05-23T23:42:32.614Z,97336.05
2019-05-23T23:45:58.899Z,97336.71
2019-05-23T23:49:23.205Z,97338.12
2019-05-23T23:52:47.881Z,97335.17
2019-05-23T23:56:14.248Z,97334.51
2019-05-23T23:59:19.861Z,97338.66
